Time;durP1;ratioP1;P1;durP2;ratioP2;P2;SDS_P1;SDS_P2;PMS_P1;PMS_P2;Temp;Humidity;BMP_temperature;BMP_pressure;BME280_temperature;BME280_humidity;BME280_pressure;Samples;Min_cycle;Max_cycle;Signal;HPM_P1;HPM_P2
2022/01/29 00:01:01;;;;;;;42.92;16.60;;;;;;;4.18;100.00;102275.06;4879805;29;20045;-75
2022/01/29 00:03:27;;;;;;;42.78;17.63;;;;;;;4.23;100.00;102273.94;4909243;29;20047;-75
2022/01/29 00:05:53;;;;;;;39.95;17.98;;;;;;;4.22;100.00;102264.47;4893050;29;20049;-75
2022/01/29 00:08:19;;;;;;;43.38;19.65;;;;;;;4.25;100.00;102264.31;4894984;29;20036;-75
2022/01/29 00:10:48;;;;;;;57.40;21.15;;;;;;;4.26;100.00;102257.41;4882032;29;20449;-75
2022/01/29 00:13:14;;;;;;;50.20;19.95;;;;;;;4.25;100.00;102247.91;4914906;29;20028;-75
2022/01/29 00:15:39;;;;;;;46.83;18.92;;;;;;;4.19;100.00;102248.19;4910970;29;20917;-76
2022/01/29 00:18:06;;;;;;;45.38;19.15;;;;;;;4.22;100.00;102246.28;4911424;29;20047;-75
2022/01/29 00:20:32;;;;;;;48.58;19.10;;;;;;;4.23;100.00;102234.16;4908429;29;20087;-75
2022/01/29 00:22:59;;;;;;;46.72;19.85;;;;;;;4.23;100.00;102234.97;4897490;29;20059;-76
2022/01/29 00:25:25;;;;;;;48.80;20.65;;;;;;;4.23;100.00;102222.00;4882718;29;20043;-75
2022/01/29 00:27:53;;;;;;;45.30;20.60;;;;;;;4.22;100.00;102217.72;4898011;29;20039;-76
2022/01/29 00:30:19;;;;;;;54.25;21.15;;;;;;;4.19;100.00;102210.06;4888451;29;20536;-76
2022/01/29 00:32:45;;;;;;;58.72;22.55;;;;;;;4.24;100.00;102208.09;4898005;29;20100;-75
2022/01/29 00:35:11;;;;;;;53.92;22.40;;;;;;;4.27;100.00;102197.56;4897873;29;20043;-76
2022/01/29 00:37:36;;;;;;;57.53;22.25;;;;;;;4.25;100.00;102204.56;4895299;29;20036;-75
2022/01/29 00:40:04;;;;;;;46.53;22.70;;;;;;;4.24;100.00;102195.13;4880183;29;20409;-76
2022/01/29 00:42:29;;;;;;;52.97;23.10;;;;;;;4.23;100.00;102188.22;4878264;29;20036;-76
2022/01/29 00:44:55;;;;;;;59.33;24.83;;;;;;;4.29;100.00;102190.56;4891896;29;20046;-76
2022/01/29 00:47:20;;;;;;;53.63;24.98;;;;;;;4.32;100.00;102184.38;4893588;29;21503;-76
2022/01/29 00:49:46;;;;;;;57.78;27.05;;;;;;;4.27;100.00;102161.19;4894176;29;20103;-76
2022/01/29 00:52:12;;;;;;;63.70;27.40;;;;;;;4.35;100.00;102168.66;4903138;29;20040;-76
2022/01/29 00:54:38;;;;;;;65.43;27.80;;;;;;;4.31;100.00;102148.06;4893997;29;20172;-77
2022/01/29 00:57:05;;;;;;;67.90;29.02;;;;;;;4.41;100.00;102157.97;4893748;29;20140;-76
2022/01/29 00:59:32;;;;;;;60.50;29.10;;;;;;;4.41;100.00;102144.97;4895659;29;20111;-76
2022/01/29 01:01:58;;;;;;;64.75;29.77;;;;;;;4.36;100.00;102140.91;4886997;29;20146;-76
2022/01/29 01:04:23;;;;;;;51.38;28.75;;;;;;;4.42;100.00;102138.03;4921080;29;20775;-76
2022/01/29 01:06:49;;;;;;;67.68;31.10;;;;;;;4.38;100.00;102126.09;4901550;29;20066;-76
2022/01/29 01:09:15;;;;;;;62.83;31.48;;;;;;;4.37;100.00;102125.25;4898060;29;20039;-76
2022/01/29 01:11:40;;;;;;;74.63;33.42;;;;;;;4.45;100.00;102122.31;4911451;29;20055;-76
2022/01/29 01:14:07;;;;;;;74.93;33.42;;;;;;;4.45;100.00;102124.91;4870408;29;20036;-76
2022/01/29 01:16:32;;;;;;;69.45;33.63;;;;;;;4.41;100.00;102119.00;4897363;29;20036;-76
2022/01/29 01:18:58;;;;;;;75.63;34.83;;;;;;;4.35;100.00;102110.63;4895628;29;20480;-76
2022/01/29 01:21:24;;;;;;;68.28;35.00;;;;;;;4.34;100.00;102111.56;4886029;29;20043;-76
2022/01/29 01:23:49;;;;;;;77.28;37.13;;;;;;;4.31;100.00;102104.75;4896166;29;20044;-76
2022/01/29 01:26:15;;;;;;;73.05;36.80;;;;;;;4.23;100.00;102091.28;4894888;29;20036;-77
2022/01/29 01:28:40;;;;;;;78.25;38.63;;;;;;;4.21;100.00;102088.75;4891934;29;20413;-76
2022/01/29 01:31:06;;;;;;;83.70;39.17;;;;;;;4.23;100.00;102089.53;4893072;29;20103;-77
2022/01/29 01:33:32;;;;;;;80.13;39.92;;;;;;;4.14;100.00;102074.38;4910862;29;20035;-77
2022/01/29 01:36:02;;;;;;;83.95;40.35;;;;;;;4.19;100.00;102067.22;4896451;29;20563;-76
2022/01/29 01:38:39;;;;;;;82.57;41.63;;;;;;;4.20;100.00;102076.69;4881239;29;20059;-77
2022/01/29 01:41:09;;;;;;;94.82;41.67;;;;;;;4.20;100.00;102071.50;4888345;29;20584;-77
2022/01/29 01:43:35;;;;;;;89.45;43.42;;;;;;;4.19;100.00;102069.81;4905881;29;20051;-76
2022/01/29 01:46:01;;;;;;;93.38;46.08;;;;;;;4.18;100.00;102068.16;4881428;29;20044;-76
2022/01/29 01:48:26;;;;;;;92.68;43.88;;;;;;;4.15;100.00;102055.28;4880856;29;20083;-77
2022/01/29 01:50:52;;;;;;;92.20;46.65;;;;;;;4.15;100.00;102065.69;4874893;29;20137;-76
2022/01/29 01:53:18;;;;;;;100.32;46.78;;;;;;;4.22;100.00;102061.88;4895735;29;20357;-76
2022/01/29 01:55:43;;;;;;;100.97;47.72;;;;;;;4.22;100.00;102050.63;4892049;29;20044;-76
2022/01/29 01:58:09;;;;;;;108.18;48.20;;;;;;;4.25;100.00;102050.50;4896612;29;20765;-76
2022/01/29 02:00:35;;;;;;;112.93;47.72;;;;;;;4.17;100.00;102042.25;4900957;29;20036;-77
2022/01/29 02:03:00;;;;;;;103.10;46.75;;;;;;;4.26;100.00;102029.66;4896427;29;20493;-77
2022/01/29 02:05:26;;;;;;;105.13;47.72;;;;;;;4.16;100.00;102015.41;4897149;29;20047;-77
2022/01/29 02:07:52;;;;;;;107.85;49.95;;;;;;;4.17;100.00;102000.69;4898132;29;20036;-77
2022/01/29 02:10:19;;;;;;;102.28;47.38;;;;;;;4.20;100.00;101998.78;4896227;29;20396;-76
2022/01/29 02:12:56;;;;;;;106.65;49.58;;;;;;;4.22;100.00;101986.56;4896842;29;20036;-77
2022/01/29 02:15:23;;;;;;;112.47;50.55;;;;;;;4.16;100.00;101968.66;4878025;29;20071;-77
2022/01/29 02:17:50;;;;;;;107.60;48.25;;;;;;;4.19;100.00;101971.13;4911066;29;20690;-77
2022/01/29 02:20:17;;;;;;;113.00;50.03;;;;;;;4.16;100.00;101965.25;4890950;29;20489;-76
2022/01/29 02:22:44;;;;;;;117.53;50.83;;;;;;;4.20;100.00;101969.34;4892913;29;20068;-76
2022/01/29 02:25:29;;;;;;;112.72;49.50;;;;;;;4.24;100.00;101963.97;4895822;29;20503;-76
2022/01/29 02:28:12;;;;;;;109.85;49.15;;;;;;;4.22;100.00;101959.72;4903527;29;20496;-76
2022/01/29 02:30:40;;;;;;;110.25;49.10;;;;;;;4.24;100.00;101945.78;4900305;29;20579;-75
2022/01/29 02:33:11;;;;;;;109.10;49.58;;;;;;;4.24;100.00;101931.97;4905583;29;20559;-76
2022/01/29 02:35:40;;;;;;;111.40;52.00;;;;;;;4.26;100.00;101936.16;4915643;29;20109;-76
2022/01/29 02:38:06;;;;;;;111.95;52.25;;;;;;;4.28;100.00;101910.94;4886800;29;20040;-76
2022/01/29 02:40:39;;;;;;;110.40;50.33;;;;;;;4.23;100.00;101919.88;4902983;29;20068;-76
2022/01/29 02:43:17;;;;;;;119.47;52.85;;;;;;;4.26;100.00;101904.16;4925150;29;20079;-76
2022/01/29 02:45:43;;;;;;;116.22;51.35;;;;;;;4.25;100.00;101908.47;4890038;29;20336;-77
2022/01/29 02:48:11;;;;;;;118.55;49.72;;;;;;;4.20;100.00;101894.91;4909367;29;20519;-76
2022/01/29 02:50:37;;;;;;;112.38;48.97;;;;;;;4.23;100.00;101892.13;4891102;29;20496;-75
2022/01/29 02:53:03;;;;;;;124.78;50.70;;;;;;;4.24;100.00;101893.00;4903088;29;20036;-77
2022/01/29 02:55:29;;;;;;;123.55;51.00;;;;;;;4.23;100.00;101880.91;4890164;29;20047;-77
2022/01/29 02:57:56;;;;;;;118.22;48.95;;;;;;;4.27;100.00;101883.25;4907959;29;20035;-77
2022/01/29 03:00:22;;;;;;;112.75;49.13;;;;;;;4.28;100.00;101882.38;4889124;29;20037;-76
2022/01/29 03:02:47;;;;;;;105.60;48.03;;;;;;;4.28;100.00;101876.34;4894494;29;20433;-77
2022/01/29 03:05:13;;;;;;;121.68;49.30;;;;;;;4.34;100.00;101870.00;4897559;29;20092;-77
2022/01/29 03:07:39;;;;;;;111.53;46.72;;;;;;;4.34;100.00;101872.59;4918804;29;20044;-77
2022/01/29 03:10:06;;;;;;;113.05;48.72;;;;;;;4.36;100.00;101868.97;4901752;29;20051;-77
2022/01/29 03:12:33;;;;;;;109.43;47.63;;;;;;;4.27;100.00;101861.66;4905044;29;20040;-77
2022/01/29 03:14:58;;;;;;;106.72;46.97;;;;;;;4.43;100.00;101852.16;4914308;29;20047;-77
2022/01/29 03:17:24;;;;;;;108.25;44.67;;;;;;;4.49;100.00;101859.63;4894390;29;20032;-77
2022/01/29 03:19:53;;;;;;;102.95;44.63;;;;;;;4.35;100.00;101837.88;4884640;29;20048;-77
2022/01/29 03:22:19;;;;;;;102.68;43.55;;;;;;;4.45;100.00;101846.91;4915919;29;20035;-77
2022/01/29 03:24:45;;;;;;;97.70;43.00;;;;;;;4.56;100.00;101841.13;4899134;29;20111;-77
2022/01/29 03:27:11;;;;;;;102.80;42.47;;;;;;;4.52;100.00;101840.47;4871265;29;20039;-77
2022/01/29 03:29:37;;;;;;;88.03;41.95;;;;;;;4.48;100.00;101820.75;4914707;29;20103;-76
2022/01/29 03:32:03;;;;;;;105.57;44.65;;;;;;;4.55;100.00;101826.47;4888556;29;20099;-77
2022/01/29 03:34:29;;;;;;;101.70;43.25;;;;;;;4.45;100.00;101816.56;4885534;29;20515;-76
2022/01/29 03:36:56;;;;;;;98.63;44.83;;;;;;;4.51;100.00;101810.19;4903053;29;20036;-77
2022/01/29 03:39:26;;;;;;;93.07;42.17;;;;;;;4.59;100.00;101807.19;4882246;29;20036;-76
2022/01/29 03:41:54;;;;;;;108.25;44.03;;;;;;;4.54;100.00;101793.59;4887342;29;20047;-76
2022/01/29 03:44:20;;;;;;;109.63;45.50;;;;;;;4.58;100.00;101776.94;4898437;29;20043;-77
2022/01/29 03:46:47;;;;;;;105.13;44.40;;;;;;;4.51;100.00;101783.38;4885840;29;20048;-77
2022/01/29 03:49:13;;;;;;;103.78;45.22;;;;;;;4.51;100.00;101773.81;4905447;29;20479;-77
2022/01/29 03:51:39;;;;;;;107.35;43.97;;;;;;;4.51;100.00;101762.59;4886374;29;20071;-76
2022/01/29 03:54:04;;;;;;;102.85;42.25;;;;;;;4.50;100.00;101751.34;4914818;29;20126;-76
2022/01/29 03:56:30;;;;;;;103.55;43.10;;;;;;;4.56;100.00;101738.03;4886178;29;20416;-77
2022/01/29 03:58:55;;;;;;;97.85;41.45;;;;;;;4.64;100.00;101743.66;4892390;29;20118;-77
2022/01/29 04:01:21;;;;;;;95.13;40.30;;;;;;;4.59;100.00;101745.66;4897383;29;20173;-76
2022/01/29 04:03:47;;;;;;;93.00;39.92;;;;;;;4.58;100.00;101732.75;4919744;29;20036;-76
2022/01/29 04:06:13;;;;;;;91.95;39.22;;;;;;;4.63;100.00;101742.00;4890686;29;20481;-76
2022/01/29 04:08:43;;;;;;;86.50;36.35;;;;;;;4.60;100.00;101739.53;4898270;29;20044;-76
2022/01/29 04:11:11;;;;;;;86.18;36.55;;;;;;;4.63;100.00;101736.78;4905323;29;20129;-77
2022/01/29 04:13:44;;;;;;;82.78;36.83;;;;;;;4.70;100.00;101733.84;4876878;29;20045;-76
2022/01/29 04:16:11;;;;;;;82.15;35.88;;;;;;;4.75;100.00;101740.47;4904240;29;20051;-77
2022/01/29 04:18:37;;;;;;;77.18;36.97;;;;;;;4.77;100.00;101723.03;4869783;29;20124;-77
2022/01/29 04:21:04;;;;;;;80.45;37.15;;;;;;;4.80;100.00;101720.28;4882814;29;20126;-77
2022/01/29 04:23:30;;;;;;;80.28;36.80;;;;;;;4.76;100.00;101700.53;4897246;29;20441;-76
2022/01/29 04:25:56;;;;;;;78.60;36.70;;;;;;;4.80;100.00;101706.41;4904249;29;20119;-76
2022/01/29 04:28:24;;;;;;;80.65;37.00;;;;;;;4.76;100.00;101703.13;4886696;29;20123;-76
2022/01/29 04:30:56;;;;;;;75.03;34.58;;;;;;;4.81;100.00;101682.09;4907269;29;20544;-76
2022/01/29 04:35:48;;;;;;;77.93;35.15;;;;;;;4.85;100.00;101696.59;4895574;29;20075;-76
2022/01/29 04:38:13;;;;;;;74.72;34.28;;;;;;;4.87;100.00;101685.19;4902542;29;20500;-76
2022/01/29 04:40:39;;;;;;;78.70;35.60;;;;;;;4.91;100.00;101687.63;4883180;29;20043;-77
2022/01/29 04:43:05;;;;;;;68.72;34.78;;;;;;;4.87;100.00;101672.19;4883036;29;20032;-77
2022/01/29 04:45:31;;;;;;;68.95;33.78;;;;;;;4.91;100.00;101672.03;4884572;29;20047;-76
2022/01/29 04:47:56;;;;;;;77.88;34.92;;;;;;;4.93;100.00;101670.16;4898143;29;20064;-77
2022/01/29 04:50:22;;;;;;;77.40;36.45;;;;;;;4.87;100.00;101660.97;4893389;29;20151;-76
2022/01/29 04:52:48;;;;;;;75.75;35.42;;;;;;;4.89;100.00;101648.72;4883417;29;20091;-77
2022/01/29 04:55:14;;;;;;;73.70;35.78;;;;;;;4.96;100.00;101647.44;4866484;29;20045;-77
2022/01/29 04:57:41;;;;;;;81.88;37.88;;;;;;;4.95;100.00;101645.75;4882115;29;20631;-76
2022/01/29 05:00:19;;;;;;;80.93;37.53;;;;;;;4.94;100.00;101630.25;4887545;29;20036;-74
2022/01/29 05:02:51;;;;;;;83.78;38.05;;;;;;;5.01;100.00;101624.63;4909575;29;20032;-77
2022/01/29 05:05:17;;;;;;;82.32;38.25;;;;;;;5.00;100.00;101620.31;4898995;29;20036;-76
2022/01/29 05:07:42;;;;;;;86.68;39.30;;;;;;;5.06;100.00;101629.53;4896644;29;20032;-76
2022/01/29 05:10:09;;;;;;;84.47;40.83;;;;;;;5.11;100.00;101621.47;4904617;29;20412;-76
2022/01/29 05:12:45;;;;;;;88.50;40.28;;;;;;;5.09;100.00;101615.53;4894314;29;20047;-76
2022/01/29 05:15:24;;;;;;;88.03;39.55;;;;;;;5.15;100.00;101604.78;4895242;29;20047;-76
2022/01/29 05:28:48;;;;;;;80.95;38.95;;;;;;;5.18;100.00;101588.97;4904056;29;20111;-76
2022/01/29 05:31:14;;;;;;;84.25;40.33;;;;;;;5.23;100.00;101582.56;4894344;29;20629;-76
2022/01/29 05:33:40;;;;;;;86.78;39.90;;;;;;;5.21;100.00;101563.63;4880635;29;20036;-76
2022/01/29 05:36:06;;;;;;;85.75;39.20;;;;;;;5.21;100.00;101554.97;4912508;29;20102;-77
2022/01/29 05:38:33;;;;;;;84.85;41.75;;;;;;;5.36;100.00;101559.25;4894752;29;20032;-76
2022/01/29 05:40:59;;;;;;;83.32;40.78;;;;;;;5.36;100.00;101555.81;4882134;29;20058;-76
2022/01/29 05:43:25;;;;;;;83.60;40.13;;;;;;;5.39;100.00;101551.28;4897383;29;20036;-76
2022/01/29 05:45:50;;;;;;;88.65;41.97;;;;;;;5.34;100.00;101552.47;4895650;29;20127;-77
2022/01/29 05:48:16;;;;;;;88.28;41.50;;;;;;;5.38;100.00;101548.75;4903145;29;20039;-76
2022/01/29 05:50:42;;;;;;;89.03;39.03;;;;;;;5.41;100.00;101543.38;4897733;29;20055;-77
2022/01/29 05:53:08;;;;;;;81.45;37.42;;;;;;;5.48;100.00;101544.66;4901938;29;20032;-76
2022/01/29 05:55:33;;;;;;;80.75;38.53;;;;;;;5.47;100.00;101549.03;4884325;29;20032;-76
2022/01/29 05:57:59;;;;;;;85.05;38.28;;;;;;;5.49;100.00;101543.75;4894644;29;20032;-76
2022/01/29 06:00:25;;;;;;;82.22;37.60;;;;;;;5.62;100.00;101549.88;4881234;29;20052;-77
2022/01/29 06:03:07;;;;;;;82.47;39.03;;;;;;;5.60;100.00;101546.53;4913626;29;20043;-77
2022/01/29 06:05:34;;;;;;;76.80;36.33;;;;;;;5.60;100.00;101543.09;4899213;29;20084;-76
2022/01/29 06:07:59;;;;;;;71.90;34.88;;;;;;;5.64;100.00;101534.97;4894290;29;20052;-76
2022/01/29 06:10:26;;;;;;;76.07;35.60;;;;;;;5.66;100.00;101533.13;4874708;29;20059;-76
2022/01/29 06:13:04;;;;;;;69.65;35.70;;;;;;;5.68;100.00;101532.19;4890325;29;20431;-77
2022/01/29 06:15:39;;;;;;;72.28;33.58;;;;;;;5.73;100.00;101522.34;4880307;29;20040;-76
2022/01/29 06:18:05;;;;;;;68.93;35.83;;;;;;;5.76;100.00;101509.94;4897510;29;20131;-76
2022/01/29 06:20:31;;;;;;;70.95;34.40;;;;;;;5.74;100.00;101505.78;4887014;29;20497;-77
2022/01/29 06:22:57;;;;;;;69.32;34.10;;;;;;;5.87;100.00;101505.84;4903977;29;20087;-77
2022/01/29 06:25:23;;;;;;;65.05;34.53;;;;;;;5.83;100.00;101498.22;4917844;29;20040;-76
2022/01/29 06:27:49;;;;;;;71.65;33.42;;;;;;;5.83;100.00;101492.19;4906074;29;20036;-76
2022/01/29 06:30:15;;;;;;;74.88;35.05;;;;;;;5.88;100.00;101487.53;4918993;29;20506;-77
2022/01/29 06:32:42;;;;;;;72.60;34.05;;;;;;;5.93;100.00;101492.44;4898393;29;20048;-77
2022/01/29 06:35:09;;;;;;;71.70;33.95;;;;;;;5.93;100.00;101479.41;4916075;29;20709;-77
2022/01/29 06:37:34;;;;;;;68.63;34.00;;;;;;;5.94;100.00;101468.06;4892395;29;20040;-77
2022/01/29 06:40:00;;;;;;;74.13;34.90;;;;;;;5.96;100.00;101461.03;4891990;29;20048;-77
2022/01/29 06:42:26;;;;;;;74.53;34.42;;;;;;;5.96;100.00;101463.63;4889642;29;20123;-77
2022/01/29 06:44:52;;;;;;;81.03;35.90;;;;;;;6.00;100.00;101471.13;4882408;29;20476;-77
2022/01/29 06:47:17;;;;;;;81.07;37.40;;;;;;;6.00;100.00;101470.31;4920390;29;20039;-76
2022/01/29 06:49:43;;;;;;;82.55;37.08;;;;;;;5.98;100.00;101456.56;4885611;29;20420;-76
2022/01/29 06:52:08;;;;;;;86.30;38.33;;;;;;;6.08;100.00;101467.22;4881923;29;20036;-76
2022/01/29 06:54:34;;;;;;;88.57;38.92;;;;;;;6.04;100.00;101462.19;4916256;29;20043;-76
2022/01/29 06:57:00;;;;;;;80.68;38.38;;;;;;;6.09;100.00;101466.28;4883232;29;20035;-77
2022/01/29 06:59:26;;;;;;;84.03;38.40;;;;;;;6.03;100.00;101442.31;4886424;29;20405;-77
2022/01/29 07:01:51;;;;;;;78.78;37.45;;;;;;;6.08;100.00;101456.78;4906050;29;20051;-77
2022/01/29 07:04:17;;;;;;;82.65;38.20;;;;;;;6.13;100.00;101455.56;4887108;29;20035;-77
2022/01/29 07:06:43;;;;;;;86.00;38.40;;;;;;;6.23;100.00;101472.28;4896923;29;20055;-76
2022/01/29 07:09:09;;;;;;;86.50;37.95;;;;;;;6.14;100.00;101470.25;4898867;29;20036;-77
2022/01/29 07:11:35;;;;;;;86.68;38.60;;;;;;;6.23;100.00;101461.00;4882887;29;20538;-76
2022/01/29 07:14:03;;;;;;;81.22;38.65;;;;;;;6.28;100.00;101471.13;4881135;29;20064;-76
2022/01/29 07:16:31;;;;;;;84.18;39.60;;;;;;;6.16;100.00;101480.56;4889699;29;20044;-77
2022/01/29 07:18:57;;;;;;;84.40;38.65;;;;;;;6.23;100.00;101472.28;4890296;29;20399;-76
2022/01/29 07:21:23;;;;;;;80.05;37.72;;;;;;;6.24;100.00;101478.31;4914438;29;20036;-76
2022/01/29 07:23:50;;;;;;;72.38;35.33;;;;;;;6.22;100.00;101480.19;4880751;29;20422;-77
2022/01/29 07:26:16;;;;;;;72.40;36.00;;;;;;;6.31;100.00;101483.94;4884555;29;20078;-76
2022/01/29 07:28:42;;;;;;;70.15;34.65;;;;;;;6.31;100.00;101495.22;4884790;29;20102;-77
2022/01/29 07:31:08;;;;;;;79.00;34.40;;;;;;;6.31;100.00;101499.56;4905126;29;20040;-76
2022/01/29 07:33:33;;;;;;;71.00;35.47;;;;;;;6.40;100.00;101494.63;4877150;29;20040;-76
2022/01/29 07:36:00;;;;;;;70.70;33.33;;;;;;;6.43;100.00;101496.16;4898236;29;20039;-77
2022/01/29 07:38:26;;;;;;;66.43;33.28;;;;;;;6.39;100.00;101492.94;4897258;29;20048;-77
2022/01/29 07:40:52;;;;;;;68.20;33.17;;;;;;;6.39;100.00;101486.88;4901010;29;20078;-77
2022/01/29 07:43:18;;;;;;;62.63;31.50;;;;;;;6.41;100.00;101493.66;4897193;29;20040;-77
2022/01/29 07:45:44;;;;;;;58.83;31.35;;;;;;;6.46;100.00;101485.56;4907264;29;20044;-76
2022/01/29 07:48:10;;;;;;;61.97;32.15;;;;;;;6.40;100.00;101488.53;4901566;29;20039;-76
2022/01/29 07:50:36;;;;;;;58.72;30.05;;;;;;;6.48;100.00;101493.25;4903894;29;20043;-76
2022/01/29 07:53:01;;;;;;;57.00;28.50;;;;;;;6.45;100.00;101480.44;4888054;29;20040;-76
2022/01/29 07:55:32;;;;;;;61.28;30.20;;;;;;;6.45;100.00;101483.03;4880688;29;20074;-76
2022/01/29 07:57:58;;;;;;;51.30;27.90;;;;;;;6.40;100.00;101462.47;4880096;29;20099;-76
2022/01/29 08:00:24;;;;;;;58.90;28.35;;;;;;;6.36;100.00;101469.66;4901458;29;20032;-77
2022/01/29 08:02:49;;;;;;;59.70;27.95;;;;;;;6.42;100.00;101460.59;4896292;29;20043;-76
2022/01/29 08:05:15;;;;;;;50.03;27.23;;;;;;;6.47;100.00;101458.53;4896833;29;20524;-77
2022/01/29 08:07:41;;;;;;;48.13;25.75;;;;;;;6.49;100.00;101459.28;4899986;29;20072;-76
2022/01/29 08:10:07;;;;;;;44.92;24.55;;;;;;;6.41;100.00;101459.78;4899275;29;20330;-77
2022/01/29 08:12:34;;;;;;;44.55;24.30;;;;;;;6.49;100.00;101458.44;4889733;29;20047;-76
2022/01/29 08:15:00;;;;;;;46.20;24.52;;;;;;;6.47;100.00;101452.50;4904619;29;20062;-76
2022/01/29 08:17:26;;;;;;;44.50;23.08;;;;;;;6.48;100.00;101455.00;4902783;29;20044;-77
2022/01/29 08:19:52;;;;;;;45.30;22.63;;;;;;;6.56;100.00;101452.72;4921983;29;20131;-76
2022/01/29 08:22:17;;;;;;;41.10;23.05;;;;;;;6.58;100.00;101453.44;4917647;29;20576;-76
2022/01/29 08:24:43;;;;;;;38.42;21.45;;;;;;;6.59;100.00;101436.03;4905916;29;20099;-76
2022/01/29 08:27:10;;;;;;;44.20;21.60;;;;;;;6.59;100.00;101434.28;4893208;29;20070;-77
2022/01/29 08:29:36;;;;;;;39.28;21.63;;;;;;;6.63;100.00;101429.69;4901797;29;20059;-76
2022/01/29 08:32:03;;;;;;;32.60;19.08;;;;;;;6.62;100.00;101422.78;4901978;29;20058;-77
2022/01/29 08:34:29;;;;;;;32.30;19.10;;;;;;;6.67;100.00;101423.31;4905611;29;20063;-77
2022/01/29 08:36:58;;;;;;;31.65;19.02;;;;;;;6.62;100.00;101413.19;4920027;29;20075;-76
2022/01/29 08:39:24;;;;;;;31.88;18.75;;;;;;;6.60;100.00;101401.22;4891744;29;20454;-76
2022/01/29 08:41:53;;;;;;;31.98;18.17;;;;;;;6.65;100.00;101406.09;4895517;29;21486;-76
2022/01/29 08:44:19;;;;;;;33.33;17.63;;;;;;;6.65;100.00;101391.31;4913484;29;20036;-76
2022/01/29 08:46:45;;;;;;;33.15;18.65;;;;;;;6.63;100.00;101391.41;4900473;29;20040;-77
2022/01/29 08:49:11;;;;;;;28.60;17.52;;;;;;;6.71;100.00;101390.06;4899378;29;20085;-76
2022/01/29 08:51:37;;;;;;;32.08;17.48;;;;;;;6.70;100.00;101390.97;4900212;29;20040;-76
2022/01/29 08:54:03;;;;;;;30.88;18.02;;;;;;;6.76;100.00;101391.41;4879584;29;20123;-77
2022/01/29 08:56:30;;;;;;;28.98;17.65;;;;;;;6.77;100.00;101381.81;4897301;29;20076;-77
2022/01/29 08:58:55;;;;;;;26.50;16.02;;;;;;;6.81;100.00;101375.44;4881785;29;20099;-77
2022/01/29 09:01:21;;;;;;;28.45;17.58;;;;;;;6.74;100.00;101366.38;4884480;29;20456;-77
2022/01/29 09:03:47;;;;;;;26.67;15.77;;;;;;;6.78;100.00;101362.59;4886131;29;20040;-77
2022/01/29 09:06:13;;;;;;;25.23;16.20;;;;;;;6.82;100.00;101364.91;4882244;29;20054;-76
2022/01/29 09:08:40;;;;;;;24.63;14.95;;;;;;;6.85;100.00;101347.38;4899352;29;20040;-77
2022/01/29 09:11:07;;;;;;;31.98;16.52;;;;;;;6.85;100.00;101361.22;4894828;29;20039;-76
2022/01/29 09:13:33;;;;;;;25.58;14.85;;;;;;;6.90;100.00;101342.69;4893952;29;20389;-76
2022/01/29 09:15:59;;;;;;;27.45;15.40;;;;;;;6.92;100.00;101349.44;4878857;29;20040;-76
2022/01/29 09:18:26;;;;;;;23.00;14.32;;;;;;;6.91;100.00;101339.09;4885091;29;20104;-77
2022/01/29 09:20:52;;;;;;;22.50;14.40;;;;;;;6.90;100.00;101338.28;4912624;29;20036;-76
2022/01/29 09:23:18;;;;;;;20.45;13.85;;;;;;;6.98;100.00;101325.53;4918134;29;20563;-76
2022/01/29 09:25:44;;;;;;;23.50;13.40;;;;;;;7.00;100.00;101321.03;4886603;29;20044;-77
2022/01/29 09:28:11;;;;;;;22.73;13.30;;;;;;;7.02;100.00;101328.75;4918545;29;20032;-76
2022/01/29 09:30:37;;;;;;;20.38;12.77;;;;;;;7.04;100.00;101305.16;4896118;29;20067;-77
2022/01/29 09:33:03;;;;;;;18.70;12.35;;;;;;;7.10;100.00;101313.41;4904943;29;20620;-77
2022/01/29 09:35:29;;;;;;;20.80;12.85;;;;;;;7.09;100.00;101316.13;4890386;29;20102;-76
2022/01/29 09:37:56;;;;;;;20.02;12.60;;;;;;;7.11;100.00;101311.63;4878624;29;20107;-76
2022/01/29 09:40:22;;;;;;;18.15;11.73;;;;;;;7.17;100.00;101308.56;4889056;29;20482;-76
2022/01/29 09:42:50;;;;;;;18.02;11.20;;;;;;;7.19;100.00;101307.50;4886241;29;20044;-77
2022/01/29 09:45:19;;;;;;;16.92;11.95;;;;;;;7.21;100.00;101303.03;4899394;29;20587;-77
2022/01/29 09:47:47;;;;;;;18.02;12.10;;;;;;;7.28;100.00;101313.84;4894938;29;20036;-76
2022/01/29 09:50:15;;;;;;;21.30;11.65;;;;;;;7.21;100.00;101320.44;4884142;29;20024;-76
2022/01/29 09:52:41;;;;;;;17.85;12.40;;;;;;;7.27;100.00;101309.59;4898585;29;20040;-77
2022/01/29 09:55:08;;;;;;;17.58;11.35;;;;;;;7.30;100.00;101298.06;4885005;29;20064;-77
2022/01/29 09:57:34;;;;;;;16.17;10.70;;;;;;;7.33;100.00;101300.47;4898774;29;20067;-76
2022/01/29 10:00:00;;;;;;;16.73;10.88;;;;;;;7.26;100.00;101294.84;4899497;29;20036;-76
2022/01/29 10:02:26;;;;;;;15.90;10.48;;;;;;;7.31;100.00;101286.69;4894266;29;20488;-76
2022/01/29 10:04:55;;;;;;;16.00;11.27;;;;;;;7.29;100.00;101273.78;4895622;29;20038;-77
2022/01/29 10:07:29;;;;;;;23.42;11.25;;;;;;;7.31;100.00;101271.03;4897950;29;20047;-77
2022/01/29 10:09:57;;;;;;;14.68;10.93;;;;;;;7.33;100.00;101277.81;4885777;29;20090;-77
2022/01/29 10:12:30;;;;;;;18.50;10.18;;;;;;;7.35;100.00;101275.91;4885877;29;20457;-76
2022/01/29 10:14:58;;;;;;;17.00;10.20;;;;;;;7.40;100.00;101267.75;4895882;29;20040;-76
2022/01/29 10:17:43;;;;;;;13.93;9.10;;;;;;;7.38;100.00;101267.03;4885573;29;20040;-76
2022/01/29 10:20:28;;;;;;;15.65;10.00;;;;;;;7.41;100.00;101257.19;4892804;29;20440;-76
2022/01/29 10:22:56;;;;;;;13.63;9.32;;;;;;;7.40;100.00;101268.59;4911936;29;20040;-75
2022/01/29 10:25:24;;;;;;;14.60;9.65;;;;;;;7.35;100.00;101239.38;4907329;29;20120;-76
2022/01/29 10:28:11;;;;;;;17.67;9.27;;;;;;;7.45;100.00;101242.13;4881464;29;20066;-76
2022/01/29 10:30:49;;;;;;;17.77;9.50;;;;;;;7.47;100.00;101242.03;4918344;29;20485;-77
2022/01/29 10:33:19;;;;;;;12.50;9.30;;;;;;;7.45;100.00;101231.69;4869192;29;20148;-76
2022/01/29 10:35:48;;;;;;;15.35;9.50;;;;;;;7.50;100.00;101211.31;4897393;29;20044;-76
2022/01/29 10:38:17;;;;;;;12.70;9.20;;;;;;;7.46;100.00;101206.41;4892465;29;20090;-75
2022/01/29 10:40:43;;;;;;;12.02;8.52;;;;;;;7.43;100.00;101197.06;4897974;29;20028;-76
2022/01/29 10:43:09;;;;;;;13.75;9.10;;;;;;;7.51;100.00;101205.13;4897801;29;20023;-75
2022/01/29 10:45:36;;;;;;;16.60;9.05;;;;;;;7.47;100.00;101193.25;4879257;29;20167;-74
2022/01/29 10:48:05;;;;;;;13.02;8.70;;;;;;;7.49;100.00;101188.75;4895977;29;20043;-74
2022/01/29 10:50:31;;;;;;;12.02;8.60;;;;;;;7.44;100.00;101183.06;4917506;29;20066;-75
2022/01/29 10:53:17;;;;;;;14.10;9.00;;;;;;;7.54;100.00;101180.59;4919469;29;20729;-75
2022/01/29 10:56:00;;;;;;;12.65;9.13;;;;;;;7.56;100.00;101176.09;4920980;29;20036;-75
2022/01/29 10:58:27;;;;;;;12.85;8.80;;;;;;;7.48;100.00;101162.75;4921941;29;20629;-76
2022/01/29 11:01:13;;;;;;;13.93;9.07;;;;;;;7.53;100.00;101152.81;4915679;29;20043;-75
2022/01/29 11:03:38;;;;;;;15.68;9.18;;;;;;;7.58;100.00;101155.91;4899871;29;20058;-76
2022/01/29 11:06:06;;;;;;;13.73;9.57;;;;;;;7.55;100.00;101141.31;4905387;29;20036;-75
2022/01/29 11:08:32;;;;;;;13.93;8.57;;;;;;;7.53;100.00;101152.81;4902525;29;20169;-76
2022/01/29 11:10:58;;;;;;;13.30;8.13;;;;;;;7.60;100.00;101131.34;4907749;29;20545;-75
2022/01/29 11:13:25;;;;;;;10.68;8.23;;;;;;;7.59;100.00;101116.63;4915451;29;20023;-75
2022/01/29 11:15:52;;;;;;;14.77;8.75;;;;;;;7.62;100.00;101104.28;4900430;29;20054;-76
2022/01/29 11:18:18;;;;;;;12.40;8.20;;;;;;;7.65;100.00;101106.66;4906612;29;20032;-75
2022/01/29 11:20:44;;;;;;;11.93;8.40;;;;;;;7.65;100.00;101109.25;4908026;29;20507;-75
2022/01/29 11:23:11;;;;;;;11.52;8.35;;;;;;;7.59;100.00;101107.94;4894168;29;20028;-77